Time;durP1;ratioP1;P1;durP2;ratioP2;P2;SDS_P1;SDS_P2;PMS_P1;PMS_P2;Temp;Humidity;BMP_temperature;BMP_pressure;BME280_temperature;BME280_humidity;BME280_pressure;Samples;Min_cycle;Max_cycle;Signal;HPM_P1;HPM_P2
2023/11/22 00:00:42;;;;;;;9.13;6.40;;;;;;;12.44;100.00;98840.16;5093752;28;20516;-50
2023/11/22 00:03:08;;;;;;;12.30;5.55;;;;;;;12.74;100.00;98840.41;5093816;28;20024;-49
2023/11/22 00:05:34;;;;;;;6.10;4.95;;;;;;;12.81;100.00;98840.38;5093970;28;20027;-49
2023/11/22 00:08:00;;;;;;;6.82;4.38;;;;;;;13.10;100.00;98834.53;5092368;28;20521;-49
2023/11/22 00:10:27;;;;;;;8.68;5.50;;;;;;;13.15;100.00;98839.97;5093659;28;20035;-49
2023/11/22 00:12:52;;;;;;;6.57;4.43;;;;;;;12.91;100.00;98835.47;5093528;28;20031;-49
2023/11/22 00:15:18;;;;;;;8.15;4.80;;;;;;;12.73;100.00;98844.06;5091860;28;20051;-49
2023/11/22 00:17:45;;;;;;;5.53;4.22;;;;;;;12.63;100.00;98846.34;5093438;28;20103;-49
2023/11/22 00:20:11;;;;;;;6.60;4.68;;;;;;;12.58;100.00;98842.50;5092101;28;20020;-49
2023/11/22 00:22:37;;;;;;;7.30;4.70;;;;;;;12.76;100.00;98847.09;5093411;28;20016;-50
2023/11/22 00:25:04;;;;;;;7.57;5.35;;;;;;;12.55;100.00;98853.44;5093255;28;20032;-49
2023/11/22 00:27:33;;;;;;;6.97;4.97;;;;;;;12.30;100.00;98847.28;5093575;28;20028;-49
2023/11/22 00:29:59;;;;;;;7.13;5.00;;;;;;;12.30;100.00;98847.28;5092067;28;20096;-49
2023/11/22 00:32:28;;;;;;;13.40;8.60;;;;;;;12.13;100.00;98846.91;5092587;28;20501;-49
2023/11/22 00:34:53;;;;;;;11.25;5.78;;;;;;;11.94;100.00;98843.31;5093024;28;20020;-49
2023/11/22 00:37:19;;;;;;;8.82;5.65;;;;;;;11.89;100.00;98838.69;5093098;28;20594;-49
2023/11/22 00:39:45;;;;;;;9.63;6.13;;;;;;;11.83;100.00;98847.34;5091726;28;20031;-49
2023/11/22 00:42:11;;;;;;;10.05;5.55;;;;;;;11.66;100.00;98841.69;5092940;28;20016;-49
2023/11/22 00:44:37;;;;;;;9.52;5.82;;;;;;;11.67;100.00;98837.22;5092977;28;20023;-49
2023/11/22 00:47:03;;;;;;;10.93;5.88;;;;;;;11.57;100.00;98835.84;5092896;28;20512;-49
2023/11/22 00:49:29;;;;;;;9.38;5.85;;;;;;;11.26;100.00;98825.09;5092896;28;20020;-49
2023/11/22 00:51:55;;;;;;;10.73;5.85;;;;;;;11.14;100.00;98822.28;5092816;28;20024;-49
2023/11/22 00:54:20;;;;;;;8.43;5.30;;;;;;;10.92;100.00;98824.25;5092661;28;20063;-49
2023/11/22 00:56:47;;;;;;;8.48;5.50;;;;;;;10.91;100.00;98822.66;5091438;28;20070;-49
2023/11/22 00:59:14;;;;;;;7.50;5.68;;;;;;;10.89;100.00;98832.53;5092759;28;20024;-49
2023/11/22 01:01:41;;;;;;;8.43;5.80;;;;;;;10.85;100.00;98824.25;5092664;28;20073;-49
2023/11/22 01:04:07;;;;;;;9.93;5.72;;;;;;;10.82;100.00;98822.00;5092683;28;20024;-49
2023/11/22 01:06:33;;;;;;;7.82;6.05;;;;;;;10.98;100.00;98836.59;5091282;28;20032;-49
2023/11/22 01:08:59;;;;;;;8.23;5.32;;;;;;;11.47;100.00;98832.81;5092540;28;20073;-49
2023/11/22 01:11:26;;;;;;;7.28;5.45;;;;;;;11.73;100.00;98837.25;5092464;28;20028;-49
2023/11/22 01:13:52;;;;;;;9.48;5.70;;;;;;;11.71;100.00;98831.38;5091280;28;20401;-49
2023/11/22 01:16:17;;;;;;;11.35;6.03;;;;;;;11.62;100.00;98827.34;5092224;28;20061;-49
2023/11/22 01:18:45;;;;;;;12.88;6.43;;;;;;;11.37;100.00;98829.78;5092347;28;20054;-49
2023/11/22 01:21:11;;;;;;;10.27;8.80;;;;;;;11.27;100.00;98843.31;5092541;28;20028;-49
2023/11/22 01:23:37;;;;;;;9.88;6.53;;;;;;;11.61;100.00;98833.63;5092297;28;20127;-49
2023/11/22 01:26:03;;;;;;;7.70;5.85;;;;;;;11.97;100.00;98832.38;5092280;28;20024;-49
2023/11/22 01:28:34;;;;;;;12.13;5.88;;;;;;;11.94;100.00;98828.34;5092214;28;20110;-49
2023/11/22 01:31:02;;;;;;;14.02;7.53;;;;;;;12.19;100.00;98832.91;5092117;28;20401;-49
2023/11/22 01:33:27;;;;;;;15.85;12.88;;;;;;;12.28;100.00;98830.88;5092085;28;20024;-50
2023/11/22 01:35:53;;;;;;;15.57;10.00;;;;;;;12.28;100.00;98846.69;5090780;28;20375;-49
2023/11/22 01:38:19;;;;;;;10.88;7.80;;;;;;;12.34;100.00;98845.84;5092321;28;20051;-49
2023/11/22 01:40:46;;;;;;;13.73;7.50;;;;;;;12.16;100.00;98844.69;5091994;28;20106;-49
2023/11/22 01:43:17;;;;;;;9.40;8.45;;;;;;;12.10;100.00;98832.34;5090264;28;20020;-49
2023/11/22 01:45:44;;;;;;;17.85;15.82;;;;;;;12.04;100.00;98825.28;5091562;28;20024;-49
2023/11/22 01:48:12;;;;;;;9.80;7.30;;;;;;;11.98;100.00;98824.28;5092001;28;20103;-49
2023/11/22 01:50:42;;;;;;;8.18;6.38;;;;;;;11.89;100.00;98840.47;5090589;28;20493;-49
2023/11/22 01:53:10;;;;;;;60.88;55.25;;;;;;;12.08;100.00;98839.63;5091876;28;20538;-49
2023/11/22 01:55:38;;;;;;;67.78;60.90;;;;;;;12.27;100.00;98848.47;5091885;28;20028;-50
2023/11/22 01:58:03;;;;;;;22.60;19.20;;;;;;;12.36;100.00;98841.19;5091840;28;20020;-49
2023/11/22 02:00:40;;;;;;;8.20;5.65;;;;;;;12.22;100.00;98840.41;5091777;28;20035;-49
2023/11/22 02:03:05;;;;;;;18.95;16.77;;;;;;;12.10;100.00;98836.81;5091857;28;20024;-49
2023/11/22 02:05:32;;;;;;;42.22;37.78;;;;;;;12.32;100.00;98853.94;5091685;28;20028;-49
2023/11/22 02:07:58;;;;;;;180.90;154.85;;;;;;;12.63;100.00;98857.66;5091917;28;20494;-49
2023/11/22 02:10:24;;;;;;;163.02;143.05;;;;;;;12.75;100.00;98852.56;5090430;28;20036;-49
2023/11/22 02:12:49;;;;;;;93.90;74.43;;;;;;;12.84;100.00;98848.69;5090372;28;20398;-49
2023/11/22 02:15:15;;;;;;;38.78;31.75;;;;;;;13.03;100.00;98854.03;5089999;28;20044;-49
2023/11/22 02:17:41;;;;;;;64.55;53.65;;;;;;;13.08;100.00;98846.28;5091655;28;20020;-49
2023/11/22 02:20:10;;;;;;;78.53;70.53;;;;;;;13.31;100.00;98841.31;5091616;28;20024;-49
2023/11/22 02:22:47;;;;;;;59.78;53.03;;;;;;;13.53;100.00;98846.22;5091496;28;20027;-50
2023/11/22 02:25:13;;;;;;;81.65;73.10;;;;;;;13.56;100.00;98851.03;5091617;28;20036;-49
2023/11/22 02:27:39;;;;;;;55.05;49.10;;;;;;;13.68;100.00;98859.91;5090279;28;20028;-49
2023/11/22 02:30:06;;;;;;;17.23;14.82;;;;;;;13.81;97.75;98847.59;5090197;28;20060;-49
2023/11/22 02:32:33;;;;;;;10.52;9.52;;;;;;;13.84;98.36;98842.69;5090166;28;20394;-49
2023/11/22 02:35:00;;;;;;;9.43;6.65;;;;;;;13.35;96.11;98858.31;5091361;28;20031;-49
2023/11/22 02:37:27;;;;;;;9.80;6.28;;;;;;;12.82;96.73;98860.41;5091535;28;20363;-49
2023/11/22 02:40:05;;;;;;;10.82;6.97;;;;;;;12.70;99.52;98857.66;5090233;28;20054;-49
2023/11/22 02:42:31;;;;;;;13.93;7.40;;;;;;;12.80;100.00;98855.38;5090494;28;20529;-49
2023/11/22 02:44:57;;;;;;;8.00;6.20;;;;;;;12.58;99.46;98860.13;5091360;28;20032;-49
2023/11/22 02:47:23;;;;;;;9.27;6.18;;;;;;;12.51;99.41;98865.41;5091348;28;20024;-49
2023/11/22 02:49:49;;;;;;;8.35;6.40;;;;;;;12.24;99.49;98877.84;5091378;28;20069;-49
2023/11/22 02:52:16;;;;;;;8.93;6.57;;;;;;;12.53;100.00;98875.72;5091285;28;20028;-49
2023/11/22 02:54:47;;;;;;;8.43;6.85;;;;;;;12.62;97.74;98876.34;5091170;28;20066;-49
2023/11/22 02:57:13;;;;;;;8.68;6.63;;;;;;;12.76;98.83;98864.72;5095056;28;20070;-49
2023/11/22 02:59:43;;;;;;;10.07;6.80;;;;;;;12.64;100.00;98858.50;5095081;28;20437;-50
2023/11/22 03:02:09;;;;;;;10.00;6.18;;;;;;;12.67;100.00;98864.13;5094991;28;20090;-49
2023/11/22 03:04:35;;;;;;;9.75;7.10;;;;;;;12.74;98.72;98870.19;5094930;28;20031;-49
2023/11/22 03:07:00;;;;;;;9.77;8.13;;;;;;;12.45;98.87;98866.25;5094883;28;20553;-49
2023/11/22 03:09:26;;;;;;;13.57;6.93;;;;;;;12.43;99.29;98872.72;5093536;28;20501;-49
2023/11/22 03:11:52;;;;;;;16.38;9.25;;;;;;;12.73;98.88;98858.03;5094756;28;20021;-49
2023/11/22 03:14:19;;;;;;;23.40;17.60;;;;;;;13.14;98.89;98856.00;5094441;28;20127;-50
2023/11/22 03:16:45;;;;;;;9.98;6.15;;;;;;;13.30;98.91;98860.78;5093386;28;20082;-49
2023/11/22 03:19:13;;;;;;;9.07;6.15;;;;;;;13.14;96.55;98864.72;5094654;28;20506;-49
2023/11/22 03:21:40;;;;;;;12.27;6.47;;;;;;;13.11;97.02;98867.75;5093351;28;20058;-49
2023/11/22 03:24:08;;;;;;;9.52;5.88;;;;;;;12.93;96.03;98865.03;5093329;28;20020;-49
2023/11/22 03:26:34;;;;;;;9.23;7.05;;;;;;;12.62;96.55;98865.81;5094485;28;20081;-49
2023/11/22 03:29:01;;;;;;;7.97;5.93;;;;;;;12.28;96.58;98873.00;5094476;28;20016;-49
2023/11/22 03:31:27;;;;;;;10.95;6.43;;;;;;;11.90;97.64;98876.28;5094391;28;20131;-49
2023/11/22 03:33:54;;;;;;;8.07;6.57;;;;;;;11.96;99.58;98865.75;5094269;28;20016;-49
2023/11/22 03:36:22;;;;;;;8.80;6.00;;;;;;;11.84;98.84;98867.38;5094350;28;20024;-49
2023/11/22 03:38:49;;;;;;;9.90;6.53;;;;;;;11.72;99.93;98871.63;5094246;28;20020;-50
2023/11/22 03:41:15;;;;;;;13.82;6.13;;;;;;;11.80;100.00;98884.56;5093224;28;20113;-49
2023/11/22 03:43:41;;;;;;;9.27;6.15;;;;;;;11.99;100.00;98882.94;5094168;28;20107;-49
2023/11/22 03:46:06;;;;;;;10.68;6.60;;;;;;;12.03;100.00;98876.25;5094201;28;20028;-50
2023/11/22 03:48:32;;;;;;;11.02;6.35;;;;;;;12.15;98.72;98882.53;5094091;28;20383;-49
2023/11/22 03:50:58;;;;;;;9.43;6.72;;;;;;;11.98;98.68;98874.25;5094032;28;20103;-49
2023/11/22 03:53:24;;;;;;;10.10;6.07;;;;;;;11.79;99.35;98882.94;5093905;28;20020;-49
2023/11/22 03:55:50;;;;;;;7.93;6.47;;;;;;;11.61;98.68;98886.19;5092553;28;20429;-49
2023/11/22 03:58:16;;;;;;;10.25;6.78;;;;;;;11.92;100.00;98888.22;5093890;28;20024;-49
2023/11/22 04:00:43;;;;;;;11.02;6.78;;;;;;;12.08;99.55;98880.94;5092466;28;20024;-49
2023/11/22 04:03:09;;;;;;;10.18;6.50;;;;;;;12.03;98.20;98881.53;5093807;28;20047;-49
2023/11/22 04:05:35;;;;;;;9.45;6.55;;;;;;;11.91;97.72;98891.03;5093668;28;20028;-49
2023/11/22 04:08:01;;;;;;;12.00;7.00;;;;;;;11.65;97.16;98897.91;5092658;28;20521;-49
2023/11/22 04:10:27;;;;;;;8.32;6.45;;;;;;;11.54;98.25;98901.94;5093621;28;20027;-49
2023/11/22 04:12:53;;;;;;;12.00;8.90;;;;;;;11.48;98.82;98908.00;5093578;28;20431;-49
2023/11/22 04:15:19;;;;;;;9.80;7.40;;;;;;;11.56;100.00;98905.19;5093213;28;20079;-49
2023/11/22 04:17:45;;;;;;;12.57;6.55;;;;;;;11.55;99.92;98900.13;5092184;28;20115;-49
2023/11/22 04:20:14;;;;;;;14.68;7.63;;;;;;;11.49;98.88;98903.53;5093487;28;20047;-49
2023/11/22 04:22:47;;;;;;;22.35;9.02;;;;;;;11.33;99.70;98908.19;5093329;28;20031;-49
2023/11/22 04:25:13;;;;;;;18.25;8.35;;;;;;;11.38;99.91;98905.75;5092063;28;20028;-49
2023/11/22 04:27:40;;;;;;;18.10;7.65;;;;;;;11.47;99.58;98901.13;5093249;28;20012;-50
2023/11/22 04:30:14;;;;;;;17.92;8.20;;;;;;;11.86;100.00;98912.66;5075104;28;20038;-50
2023/11/22 04:32:41;;;;;;;21.10;13.40;;;;;;;12.30;99.32;98915.69;5092242;28;20055;-49
2023/11/22 04:35:09;;;;;;;34.40;27.65;;;;;;;12.56;99.28;98920.09;5092954;28;20169;-49
2023/11/22 04:37:35;;;;;;;15.60;7.53;;;;;;;12.48;98.08;98921.13;5093098;28;20031;-49
2023/11/22 04:40:03;;;;;;;14.65;9.93;;;;;;;12.26;98.26;98919.75;5074953;28;20043;-49
2023/11/22 04:42:29;;;;;;;15.13;11.43;;;;;;;12.18;98.01;98934.72;5093071;28;20016;-50
2023/11/22 04:44:55;;;;;;;13.15;10.30;;;;;;;11.91;97.48;98933.13;5092979;28;20478;-49
2023/11/22 04:47:23;;;;;;;19.88;13.48;;;;;;;11.78;97.82;98931.28;5092917;28;20024;-49
2023/11/22 04:49:51;;;;;;;22.52;15.20;;;;;;;11.82;98.34;98934.31;5092922;28;20024;-49
2023/11/22 04:52:16;;;;;;;49.08;44.40;;;;;;;11.73;98.86;98941.59;5092830;28;20074;-49
2023/11/22 04:54:42;;;;;;;23.75;19.90;;;;;;;11.66;99.14;98932.91;5092745;28;20074;-49
2023/11/22 04:57:08;;;;;;;27.83;22.55;;;;;;;11.85;100.00;98934.75;5091684;28;20028;-49
2023/11/22 04:59:34;;;;;;;18.77;11.88;;;;;;;11.89;98.86;98935.97;5092710;28;20020;-49
2023/11/22 05:01:59;;;;;;;20.60;12.70;;;;;;;11.77;97.94;98941.00;5092659;28;20023;-49
2023/11/22 05:04:26;;;;;;;12.75;10.63;;;;;;;11.72;98.56;98943.41;5092677;28;20031;-49
2023/11/22 05:06:53;;;;;;;12.20;8.77;;;;;;;11.78;97.76;98953.13;5092590;28;20020;-49
2023/11/22 05:09:19;;;;;;;31.92;25.27;;;;;;;11.69;97.30;98958.78;5092535;28;20099;-49
2023/11/22 05:11:46;;;;;;;14.07;9.40;;;;;;;11.79;97.71;98949.50;5092412;28;20012;-50
2023/11/22 05:14:13;;;;;;;19.38;11.10;;;;;;;11.64;96.10;98948.88;5092119;28;20036;-50
2023/11/22 05:16:38;;;;;;;10.88;7.43;;;;;;;11.51;97.74;98964.59;5092445;28;20039;-49
2023/11/22 05:19:05;;;;;;;10.25;8.18;;;;;;;11.40;97.95;98955.50;5092174;28;20016;-49
2023/11/22 05:21:32;;;;;;;13.23;7.60;;;;;;;11.31;97.84;98962.75;5092325;28;20024;-49
2023/11/22 05:23:58;;;;;;;20.95;15.80;;;;;;;11.45;99.25;98960.16;5092407;28;20033;-49
2023/11/22 05:26:26;;;;;;;13.30;8.98;;;;;;;11.77;99.50;98955.94;5092244;28;20073;-49
2023/11/22 05:28:53;;;;;;;13.25;9.10;;;;;;;11.87;97.22;98963.44;5092246;28;20024;-49
2023/11/22 05:31:22;;;;;;;27.35;24.67;;;;;;;11.86;95.60;98959.22;5092221;28;20020;-49
2023/11/22 05:33:48;;;;;;;17.05;13.38;;;;;;;12.32;96.75;98953.94;5091963;28;20043;-49
2023/11/22 05:36:16;;;;;;;12.95;8.40;;;;;;;12.68;95.78;98968.47;5090844;28;20047;-50
2023/11/22 05:38:42;;;;;;;15.02;12.43;;;;;;;12.84;94.40;98969.00;5092064;28;20030;-49
2023/11/22 05:41:08;;;;;;;15.30;11.57;;;;;;;12.80;92.51;98973.91;5090721;28;20112;-49
2023/11/22 05:43:36;;;;;;;18.30;14.48;;;;;;;12.87;92.84;98977.31;5090774;28;20131;-49
2023/11/22 05:46:04;;;;;;;15.65;14.20;;;;;;;13.24;92.54;98984.66;5092006;28;20028;-49
2023/11/22 05:48:30;;;;;;;40.63;36.50;;;;;;;13.28;92.56;98983.22;5091884;28;20024;-49
2023/11/22 05:50:56;;;;;;;45.33;40.90;;;;;;;13.24;92.67;98982.84;5091934;28;20024;-49
2023/11/22 05:53:22;;;;;;;34.45;30.83;;;;;;;13.06;91.31;98988.81;5090548;28;20028;-49
2023/11/22 05:55:52;;;;;;;27.08;21.33;;;;;;;12.85;90.38;98986.44;5090594;28;20032;-49
2023/11/22 05:58:18;;;;;;;11.50;8.25;;;;;;;12.84;90.87;98990.91;5091958;28;20020;-50
2023/11/22 06:00:45;;;;;;;11.40;9.07;;;;;;;12.89;91.13;98985.81;5091776;28;20077;-49
2023/11/22 06:03:12;;;;;;;19.70;11.18;;;;;;;12.91;90.55;98994.31;5091876;28;20020;-49
2023/11/22 06:05:39;;;;;;;14.55;9.98;;;;;;;12.72;90.68;98998.63;5091793;28;20424;-49
2023/11/22 06:08:05;;;;;;;18.58;8.60;;;;;;;12.20;90.93;99000.31;5090473;28;20016;-49
2023/11/22 06:10:30;;;;;;;24.25;14.40;;;;;;;12.12;91.80;99000.53;5091753;28;20024;-49
2023/11/22 06:12:56;;;;;;;12.68;8.43;;;;;;;12.28;92.08;99013.28;5091728;28;20529;-50
2023/11/22 06:15:23;;;;;;;40.13;10.77;;;;;;;12.08;91.88;99007.19;5091268;28;20044;-49
2023/11/22 06:17:49;;;;;;;22.27;10.00;;;;;;;12.24;93.46;99009.41;5091555;28;20046;-49
2023/11/22 06:20:15;;;;;;;35.45;12.20;;;;;;;12.42;93.73;99014.06;5090390;28;20383;-49
2023/11/22 06:22:42;;;;;;;26.88;10.63;;;;;;;12.52;93.32;99019.72;5091909;28;20020;-50
2023/11/22 06:25:14;;;;;;;26.70;9.38;;;;;;;12.79;91.72;99009.94;5091600;28;20069;-49
2023/11/22 06:27:40;;;;;;;31.58;11.13;;;;;;;12.68;89.60;99029.03;5091566;28;20035;-49
2023/11/22 06:30:06;;;;;;;39.20;14.75;;;;;;;12.56;91.50;99035.94;5092180;28;20031;-49
2023/11/22 06:32:34;;;;;;;40.90;14.65;;;;;;;12.73;93.00;99023.94;5095532;28;20462;-49
2023/11/22 06:35:00;;;;;;;24.73;10.40;;;;;;;12.95;92.36;99026.31;5095453;28;20034;-49
2023/11/22 06:37:25;;;;;;;25.33;9.07;;;;;;;12.78;91.58;99028.59;5095499;28;20016;-49
2023/11/22 06:39:52;;;;;;;33.55;14.27;;;;;;;12.47;91.11;99027.41;5094096;28;20448;-49
2023/11/22 06:42:19;;;;;;;26.75;9.85;;;;;;;12.45;90.42;99042.59;5094085;28;20051;-49
2023/11/22 06:44:47;;;;;;;24.73;11.75;;;;;;;12.26;89.55;99036.34;5095273;28;20036;-49
2023/11/22 06:47:14;;;;;;;20.05;10.18;;;;;;;12.02;90.92;99043.00;5095219;28;20099;-49
2023/11/22 06:49:40;;;;;;;28.95;13.60;;;;;;;11.86;90.85;99046.78;5093917;28;20020;-49
2023/11/22 06:52:06;;;;;;;18.33;9.60;;;;;;;11.68;90.88;99043.94;5095138;28;20016;-49
2023/11/22 06:54:31;;;;;;;21.95;11.40;;;;;;;11.44;91.75;99053.97;5093741;28;20077;-49
2023/11/22 06:56:57;;;;;;;23.63;11.60;;;;;;;11.39;92.89;99062.44;5093694;28;20031;-49
2023/11/22 06:59:23;;;;;;;18.02;9.48;;;;;;;11.30;91.22;99057.53;5095109;28;20031;-49
2023/11/22 07:01:49;;;;;;;27.67;10.45;;;;;;;11.02;88.39;99053.16;5093669;28;20020;-49
2023/11/22 07:04:14;;;;;;;36.67;29.95;;;;;;;10.84;90.17;99071.22;5093681;28;20032;-48
2023/11/22 07:06:42;;;;;;;21.20;10.05;;;;;;;10.76;91.16;99064.31;5094813;28;20027;-48
2023/11/22 07:09:11;;;;;;;18.20;9.88;;;;;;;10.71;91.95;99066.72;5095128;28;20027;-49
2023/11/22 07:11:37;;;;;;;16.20;9.57;;;;;;;10.66;93.18;99077.75;5094851;28;20020;-49
2023/11/22 07:14:06;;;;;;;16.77;10.15;;;;;;;10.75;93.74;99079.25;5094386;28;20020;-50
2023/11/22 07:16:33;;;;;;;14.82;10.27;;;;;;;10.89;93.35;99072.28;5094735;28;20032;-49
2023/11/22 07:19:02;;;;;;;18.35;11.27;;;;;;;11.07;92.34;99082.28;5094734;28;20024;-49
2023/11/22 07:21:32;;;;;;;21.92;12.93;;;;;;;11.17;92.34;99079.31;5094659;28;20052;-49
2023/11/22 07:24:01;;;;;;;17.45;12.55;;;;;;;11.13;92.12;99086.78;5094644;28;20069;-49
2023/11/22 07:26:27;;;;;;;25.48;14.35;;;;;;;11.24;93.69;99080.16;5093176;28;20490;-49
2023/11/22 07:28:54;;;;;;;20.08;10.48;;;;;;;11.80;91.07;99074.69;5093161;28;20115;-49
2023/11/22 07:31:21;;;;;;;28.23;12.30;;;;;;;12.01;89.76;99078.19;5094353;28;20490;-49
2023/11/22 07:33:46;;;;;;;39.30;14.40;;;;;;;12.02;89.66;99076.41;5094223;28;20020;-49
2023/11/22 07:36:15;;;;;;;19.55;11.90;;;;;;;12.05;88.88;99066.28;5094301;28;20038;-49
2023/11/22 07:38:42;;;;;;;40.47;16.67;;;;;;;11.76;84.03;99070.03;5094251;28;20016;-49
2023/11/22 07:41:08;;;;;;;24.08;12.18;;;;;;;11.49;82.86;99077.00;5094211;28;20552;-48
2023/11/22 07:43:36;;;;;;;36.15;18.63;;;;;;;11.15;84.02;99076.06;5094143;28;20028;-49
2023/11/22 07:46:08;;;;;;;59.20;16.38;;;;;;;11.08;85.95;99080.47;5092854;28;20547;-49
2023/11/22 07:48:37;;;;;;;26.08;14.90;;;;;;;11.15;86.22;99073.44;5094057;28;20032;-48
2023/11/22 07:51:03;;;;;;;32.38;19.30;;;;;;;11.24;86.10;99071.47;5094044;28;20517;-49
2023/11/22 07:53:29;;;;;;;59.05;15.85;;;;;;;11.40;86.01;99081.63;5093931;28;20028;-49
2023/11/22 07:55:56;;;;;;;44.72;13.13;;;;;;;11.50;84.74;99087.34;5093954;28;20024;-49
2023/11/22 07:58:22;;;;;;;31.10;10.95;;;;;;;11.72;85.23;99077.50;5093951;28;20521;-49
2023/11/22 08:00:48;;;;;;;30.83;14.63;;;;;;;12.06;86.12;99083.69;5093880;28;20020;-49
2023/11/22 08:03:15;;;;;;;14.32;9.15;;;;;;;12.23;85.10;99085.94;5094048;28;20468;-49
2023/11/22 08:05:41;;;;;;;26.55;9.50;;;;;;;12.56;84.02;99088.59;5092569;28;20536;-49
2023/11/22 08:08:07;;;;;;;20.35;10.65;;;;;;;12.88;81.19;99094.03;5093748;28;20027;-48
2023/11/22 08:10:36;;;;;;;11.98;7.55;;;;;;;13.31;77.25;99093.56;5093603;28;20035;-49
2023/11/22 08:13:03;;;;;;;17.25;8.07;;;;;;;13.77;77.67;99098.63;5092304;28;20545;-49
2023/11/22 08:15:29;;;;;;;12.35;7.38;;;;;;;14.38;78.38;99102.50;5093143;28;20043;-49
2023/11/22 08:17:55;;;;;;;17.67;12.80;;;;;;;15.22;75.05;99104.03;5093546;28;20393;-49
2023/11/22 08:20:21;;;;;;;11.35;7.68;;;;;;;15.59;70.77;99096.88;5093513;28;20101;-47
2023/11/22 08:22:50;;;;;;;8.93;7.13;;;;;;;15.75;66.59;99095.47;5093691;28;20024;-46
2023/11/22 08:25:17;;;;;;;10.13;6.43;;;;;;;16.06;66.04;99091.00;5093381;28;20032;-47
2023/11/22 08:27:43;;;;;;;13.57;7.32;;;;;;;16.36;65.39;99090.97;5093323;28;20513;-47
2023/11/22 08:30:13;;;;;;;13.00;8.88;;;;;;;16.47;61.99;99079.56;5093364;28;20024;-46
2023/11/22 08:32:43;;;;;;;9.57;6.85;;;;;;;16.49;59.22;99082.78;5093309;28;20024;-47
2023/11/22 08:35:11;;;;;;;11.73;6.78;;;;;;;16.55;60.78;99086.38;5091792;28;20407;-47
2023/11/22 08:37:41;;;;;;;10.07;6.47;;;;;;;16.92;61.24;99080.84;5093180;28;20397;-47
2023/11/22 08:40:09;;;;;;;8.13;5.95;;;;;;;17.31;58.36;99068.69;5093190;28;20107;-46
2023/11/22 08:42:37;;;;;;;11.00;5.50;;;;;;;17.54;54.02;99086.38;5093021;28;20509;-46
2023/11/22 08:45:03;;;;;;;40.25;21.85;;;;;;;17.70;54.60;99094.66;5093022;28;20032;-47
2023/11/22 08:47:31;;;;;;;18.67;10.30;;;;;;;18.04;54.53;99092.13;5092888;28;20016;-47
2023/11/22 08:49:57;;;;;;;10.07;5.50;;;;;;;18.22;53.79;99083.13;5092915;28;20032;-46
2023/11/22 08:52:23;;;;;;;14.73;6.15;;;;;;;18.43;53.36;99082.41;5092997;28;20081;-47
2023/11/22 08:54:50;;;;;;;11.57;6.10;;;;;;;18.41;54.54;99070.41;5092443;28;20016;-47
2023/11/22 08:57:18;;;;;;;9.85;6.03;;;;;;;17.86;50.96;99079.84;5092785;28;20031;-46
2023/11/22 08:59:44;;;;;;;20.75;6.45;;;;;;;17.55;53.18;99079.25;5092996;28;20024;-46
2023/11/22 09:02:12;;;;;;;16.20;6.63;;;;;;;18.21;53.40;99085.00;5092723;28;20024;-46
2023/11/22 09:04:38;;;;;;;9.35;6.25;;;;;;;18.60;48.73;99085.06;5091524;28;20069;-46
2023/11/22 09:07:05;;;;;;;9.95;5.85;;;;;;;18.90;48.71;99079.41;5091216;28;20052;-46
2023/11/22 09:09:31;;;;;;;9.38;5.93;;;;;;;18.84;48.91;99085.72;5092533;28;20024;-46
2023/11/22 09:11:58;;;;;;;8.43;4.80;;;;;;;18.96;46.88;99091.72;5091252;28;20131;-46
2023/11/22 09:14:24;;;;;;;9.60;5.07;;;;;;;18.94;46.71;99093.81;5092089;28;20044;-47
2023/11/22 09:16:54;;;;;;;8.52;4.63;;;;;;;19.18;45.70;99098.94;5092415;28;20036;-46
2023/11/22 09:19:24;;;;;;;8.40;4.60;;;;;;;19.39;46.34;99099.97;5091237;28;20099;-46
2023/11/22 09:21:51;;;;;;;6.82;4.70;;;;;;;19.78;45.27;99105.28;5092575;28;20059;-46
2023/11/22 09:24:17;;;;;;;12.35;6.50;;;;;;;19.90;44.44;99099.78;5091015;28;20493;-46
2023/11/22 09:26:43;;;;;;;8.32;7.30;;;;;;;20.01;43.57;99087.38;5092294;28;20571;-46
2023/11/22 09:29:13;;;;;;;6.90;4.13;;;;;;;19.94;42.77;99084.91;5092544;28;20016;-46
2023/11/22 09:31:39;;;;;;;6.30;4.40;;;;;;;19.88;43.81;99080.56;5092494;28;20401;-46
2023/11/22 09:34:05;;;;;;;6.57;4.25;;;;;;;19.85;42.49;99079.22;5092033;28;20572;-46
2023/11/22 09:36:33;;;;;;;12.43;6.15;;;;;;;19.48;45.04;99082.53;5092140;28;20110;-46
2023/11/22 09:38:59;;;;;;;6.80;4.10;;;;;;;19.13;44.13;99077.56;5092093;28;20367;-46
2023/11/22 09:41:26;;;;;;;8.48;4.13;;;;;;;19.52;43.88;99073.00;5090704;28;20118;-47
2023/11/22 09:43:53;;;;;;;6.15;5.03;;;;;;;19.27;44.00;99086.78;5092038;28;20027;-46
2023/11/22 09:46:23;;;;;;;5.75;5.15;;;;;;;18.43;45.08;99084.25;5090718;28;20023;-46
2023/11/22 09:48:51;;;;;;;7.63;4.70;;;;;;;17.74;46.70;99079.88;5091955;28;20013;-46
2023/11/22 09:51:22;;;;;;;5.47;4.93;;;;;;;17.53;47.08;99081.34;5091990;28;20077;-46
2023/11/22 09:54:04;;;;;;;6.40;4.32;;;;;;;17.75;48.27;99089.44;5091863;28;20032;-46
2023/11/22 09:56:32;;;;;;;12.68;5.18;;;;;;;18.76;48.03;99076.25;5091908;28;20027;-46
2023/11/22 09:59:00;;;;;;;8.57;4.35;;;;;;;18.94;44.75;99072.56;5091885;28;20069;-46
2023/11/22 10:01:36;;;;;;;9.63;4.60;;;;;;;18.64;45.62;99069.44;5091861;28;20031;-46
2023/11/22 10:04:05;;;;;;;16.67;7.50;;;;;;;18.58;47.44;99073.06;5091902;28;20032;-46
2023/11/22 10:06:34;;;;;;;8.10;4.50;;;;;;;18.30;48.04;99061.47;5095010;28;20020;-46
2023/11/22 10:09:10;;;;;;;10.77;5.28;;;;;;;17.68;48.40;99055.06;5096065;28;20028;-46
2023/11/22 10:11:38;;;;;;;10.93;4.47;;;;;;;17.24;48.46;99046.78;5094849;28;20474;-46
2023/11/22 10:14:04;;;;;;;12.68;7.00;;;;;;;16.08;50.28;99052.69;5094271;28;20020;-47
2023/11/22 10:16:30;;;;;;;5.55;4.35;;;;;;;15.20;52.45;99040.00;5094620;28;20425;-46
2023/11/22 10:18:57;;;;;;;10.25;5.18;;;;;;;14.95;55.82;99059.34;5095889;28;20024;-46
2023/11/22 10:21:30;;;;;;;9.85;4.68;;;;;;;14.66;56.20;99064.31;5095743;28;20118;-46
2023/11/22 10:24:09;;;;;;;7.85;4.63;;;;;;;14.70;57.29;99060.22;5095842;28;20032;-46
2023/11/22 10:26:35;;;;;;;5.72;4.63;;;;;;;14.53;56.96;99067.88;5094598;28;20045;-46
2023/11/22 10:29:02;;;;;;;4.97;3.95;;;;;;;14.16;58.37;99066.94;5094388;28;20077;-46
2023/11/22 10:31:28;;;;;;;8.93;4.45;;;;;;;14.39;57.69;99051.31;5095554;28;20031;-46
2023/11/22 10:33:57;;;;;;;11.95;4.35;;;;;;;14.30;57.28;99067.66;5077354;28;20028;-46
2023/11/22 10:36:24;;;;;;;33.00;29.67;;;;;;;14.15;59.57;99075.88;5095462;28;20166;-46
2023/11/22 10:38:52;;;;;;;12.82;6.82;;;;;;;14.06;59.97;99067.41;5095531;28;20031;-46
2023/11/22 10:41:24;;;;;;;9.48;5.03;;;;;;;14.13;58.86;99051.53;5095422;28;20027;-45
2023/11/22 10:43:53;;;;;;;22.98;20.45;;;;;;;13.81;58.90;99064.72;5094174;28;20085;-48
2023/11/22 10:46:21;;;;;;;11.35;5.13;;;;;;;13.47;59.91;99044.81;5095355;28;20020;-48
2023/11/22 10:48:46;;;;;;;346.17;282.30;;;;;;;13.29;60.78;99056.00;5095353;28;20024;-48
2023/11/22 10:51:14;;;;;;;515.33;370.65;;;;;;;13.36;60.70;99056.81;5093975;28;20512;-47
2023/11/22 10:53:48;;;;;;;247.05;200.95;;;;;;;13.48;60.82;99055.16;5093872;28;20028;-48
2023/11/22 10:56:19;;;;;;;28.95;17.63;;;;;;;14.08;62.02;99070.63;5095210;28;20554;-48
2023/11/22 10:58:55;;;;;;;9.27;7.03;;;;;;;15.26;58.22;99057.63;5095191;28;20107;-46
2023/11/22 11:01:25;;;;;;;8.57;4.07;;;;;;;15.30;55.22;99053.50;5095067;28;20052;-46
2023/11/22 11:04:07;;;;;;;17.58;9.48;;;;;;;14.94;55.39;99036.63;5094971;28;20012;-46
2023/11/22 11:06:35;;;;;;;8.05;4.72;;;;;;;14.51;58.06;99055.91;5094846;28;20056;-46
2023/11/22 11:09:08;;;;;;;7.00;3.95;;;;;;;14.17;57.66;99053.53;5094915;28;20020;-46
2023/11/22 11:11:35;;;;;;;10.80;3.80;;;;;;;13.83;58.80;99060.03;5095168;28;20123;-46
2023/11/22 11:14:03;;;;;;;5.93;3.50;;;;;;;13.51;59.67;99054.72;5093206;28;20032;-47
2023/11/22 11:16:34;;;;;;;8.10;3.83;;;;;;;13.40;59.70;99055.41;5094347;28;20063;-46
2023/11/22 11:19:01;;;;;;;7.15;2.95;;;;;;;13.20;60.68;99052.81;5095072;28;20458;-46
2023/11/22 11:21:27;;;;;;;5.18;3.20;;;;;;;13.16;62.09;99049.78;5094660;28;20020;-46